sensor_id;sensor_type;location;lat;lon;timestamp;pressure;altitude;pressure_sealevel;temperature;humidity
41102;BME280;26845;50.190;19.178;2022-10-22T00:01:55;98526.03;;;9.40;73.99
41102;BME280;26845;50.190;19.178;2022-10-22T00:04:22;98519.91;;;9.40;74.08
41102;BME280;26845;50.190;19.178;2022-10-22T00:06:49;98529.48;;;9.45;74.17
41102;BME280;26845;50.190;19.178;2022-10-22T00:09:15;98533.77;;;9.52;74.18
41102;BME280;26845;50.190;19.178;2022-10-22T00:11:43;98537.30;;;9.55;74.20
41102;BME280;26845;50.190;19.178;2022-10-22T00:14:11;98538.22;;;9.61;74.41
41102;BME280;26845;50.190;19.178;2022-10-22T00:16:37;98532.79;;;9.67;74.42
41102;BME280;26845;50.190;19.178;2022-10-22T00:19:04;98538.78;;;9.72;74.40
41102;BME280;26845;50.190;19.178;2022-10-22T00:21:30;98537.34;;;9.75;74.60
41102;BME280;26845;50.190;19.178;2022-10-22T00:23:57;98528.61;;;9.79;74.72
41102;BME280;26845;50.190;19.178;2022-10-22T00:26:24;98523.56;;;9.81;74.60
41102;BME280;26845;50.190;19.178;2022-10-22T00:28:50;98529.12;;;9.81;74.42
41102;BME280;26845;50.190;19.178;2022-10-22T00:31:17;98529.12;;;9.81;74.50
41102;BME280;26845;50.190;19.178;2022-10-22T00:33:46;98528.13;;;9.77;74.47
41102;BME280;26845;50.190;19.178;2022-10-22T00:36:14;98527.11;;;9.73;74.27
41102;BME280;26845;50.190;19.178;2022-10-22T00:38:41;98524.97;;;9.69;74.29
41102;BME280;26845;50.190;19.178;2022-10-22T00:41:08;98530.22;;;9.71;74.45
41102;BME280;26845;50.190;19.178;2022-10-22T00:43:56;98533.70;;;9.65;74.08
41102;BME280;26845;50.190;19.178;2022-10-22T00:46:25;98521.20;;;9.65;74.26
41102;BME280;26845;50.190;19.178;2022-10-22T00:48:53;98517.28;;;9.66;74.53
41102;BME280;26845;50.190;19.178;2022-10-22T00:51:23;98518.44;;;9.65;74.41
41102;BME280;26845;50.190;19.178;2022-10-22T00:53:54;98519.07;;;9.62;74.45
41102;BME280;26845;50.190;19.178;2022-10-22T00:56:24;98521.34;;;9.60;74.60
41102;BME280;26845;50.190;19.178;2022-10-22T00:58:53;98517.06;;;9.54;74.53
41102;BME280;26845;50.190;19.178;2022-10-22T01:01:25;98527.02;;;9.44;74.58
41102;BME280;26845;50.190;19.178;2022-10-22T01:03:53;98524.58;;;9.42;74.66
41102;BME280;26845;50.190;19.178;2022-10-22T01:06:28;98516.95;;;9.37;74.63
41102;BME280;26845;50.190;19.178;2022-10-22T01:17:30;98511.52;;;9.20;74.51
41102;BME280;26845;50.190;19.178;2022-10-22T01:29:05;98517.45;;;9.05;74.83
41102;BME280;26845;50.190;19.178;2022-10-22T01:31:43;98523.00;;;9.05;74.67
41102;BME280;26845;50.190;19.178;2022-10-22T01:34:16;98517.56;;;9.00;74.66
41102;BME280;26845;50.190;19.178;2022-10-22T01:36:46;98505.45;;;8.96;74.73
41102;BME280;26845;50.190;19.178;2022-10-22T01:39:17;98503.06;;;8.92;74.77
41102;BME280;26845;50.190;19.178;2022-10-22T01:41:45;98505.08;;;8.89;74.87
41102;BME280;26845;50.190;19.178;2022-10-22T01:44:41;98512.42;;;8.82;74.46
41102;BME280;26845;50.190;19.178;2022-10-22T01:47:22;98510.47;;;8.71;74.72
41102;BME280;26845;50.190;19.178;2022-10-22T01:56:16;98501.56;;;8.61;75.10
41102;BME280;26845;50.190;19.178;2022-10-22T02:04:48;98497.05;;;8.40;75.27
41102;BME280;26845;50.190;19.178;2022-10-22T02:07:19;98491.30;;;8.33;75.30
41102;BME280;26845;50.190;19.178;2022-10-22T02:09:49;98489.67;;;8.32;75.42
41102;BME280;26845;50.190;19.178;2022-10-22T02:12:19;98479.52;;;8.28;75.37
41102;BME280;26845;50.190;19.178;2022-10-22T02:14:49;98483.19;;;8.26;75.47
41102;BME280;26845;50.190;19.178;2022-10-22T02:17:19;98483.80;;;8.23;75.65
41102;BME280;26845;50.190;19.178;2022-10-22T02:19:51;98487.24;;;8.17;75.56
41102;BME280;26845;50.190;19.178;2022-10-22T02:22:24;98487.24;;;8.17;75.84
41102;BME280;26845;50.190;19.178;2022-10-22T02:24:51;98483.58;;;8.19;75.95
41102;BME280;26845;50.190;19.178;2022-10-22T02:27:32;98485.14;;;8.25;76.11
41102;BME280;26845;50.190;19.178;2022-10-22T02:30:05;98480.04;;;8.30;76.10
41102;BME280;26845;50.190;19.178;2022-10-22T02:33:06;98478.46;;;8.26;75.84
41102;BME280;26845;50.190;19.178;2022-10-22T02:35:37;98476.83;;;8.25;75.90
41102;BME280;26845;50.190;19.178;2022-10-22T02:38:07;98479.84;;;8.26;75.98
41102;BME280;26845;50.190;19.178;2022-10-22T02:40:35;98479.84;;;8.26;75.99
41102;BME280;26845;50.190;19.178;2022-10-22T02:43:05;98481.66;;;8.20;76.12
41102;BME280;26845;50.190;19.178;2022-10-22T02:45:32;98470.06;;;8.18;76.19
41102;BME280;26845;50.190;19.178;2022-10-22T02:48:00;98465.81;;;8.23;76.39
41102;BME280;26845;50.190;19.178;2022-10-22T02:50:27;98467.25;;;8.20;76.56
41102;BME280;26845;50.190;19.178;2022-10-22T02:52:53;98473.84;;;8.08;76.50
41102;BME280;26845;50.190;19.178;2022-10-22T02:55:20;98477.36;;;8.00;76.54
41102;BME280;26845;50.190;19.178;2022-10-22T02:57:46;98479.04;;;7.98;77.56
41102;BME280;26845;50.190;19.178;2022-10-22T03:00:13;98484.77;;;8.02;77.14
41102;BME280;26845;50.190;19.178;2022-10-22T03:02:40;98496.61;;;8.05;77.21
41102;BME280;26845;50.190;19.178;2022-10-22T03:05:08;98502.30;;;8.11;77.27
41102;BME280;26845;50.190;19.178;2022-10-22T03:07:35;98505.78;;;8.17;77.30
41102;BME280;26845;50.190;19.178;2022-10-22T03:10:02;98505.48;;;8.18;77.30
41102;BME280;26845;50.190;19.178;2022-10-22T03:12:29;98496.56;;;8.21;77.11
41102;BME280;26845;50.190;19.178;2022-10-22T03:14:56;98494.03;;;8.22;77.84
41102;BME280;26845;50.190;19.178;2022-10-22T03:17:22;98515.59;;;8.25;77.12
41102;BME280;26845;50.190;19.178;2022-10-22T03:19:49;98514.80;;;8.22;77.52
41102;BME280;26845;50.190;19.178;2022-10-22T03:22:21;98520.04;;;8.24;77.73
41102;BME280;26845;50.190;19.178;2022-10-22T03:24:53;98514.97;;;8.28;77.43
41102;BME280;26845;50.190;19.178;2022-10-22T03:27:23;98511.83;;;8.32;77.39
41102;BME280;26845;50.190;19.178;2022-10-22T03:29:51;98506.30;;;8.32;77.33
41102;BME280;26845;50.190;19.178;2022-10-22T03:32:19;98505.16;;;8.33;77.75
41102;BME280;26845;50.190;19.178;2022-10-22T03:34:45;98493.02;;;8.32;78.05
41102;BME280;26845;50.190;19.178;2022-10-22T03:37:13;98491.11;;;8.30;77.48
41102;BME280;26845;50.190;19.178;2022-10-22T03:39:40;98482.81;;;8.30;77.41
41102;BME280;26845;50.190;19.178;2022-10-22T03:42:06;98482.23;;;8.30;77.36
41102;BME280;26845;50.190;19.178;2022-10-22T03:44:36;98471.11;;;8.33;77.58
41102;BME280;26845;50.190;19.178;2022-10-22T03:47:04;98468.34;;;8.33;77.23
41102;BME280;26845;50.190;19.178;2022-10-22T03:49:31;98462.80;;;8.33;77.21
41102;BME280;26845;50.190;19.178;2022-10-22T03:52:11;98456.40;;;8.35;77.14
41102;BME280;26845;50.190;19.178;2022-10-22T03:54:36;98458.84;;;8.37;77.20
41102;BME280;26845;50.190;19.178;2022-10-22T03:57:04;98470.48;;;8.36;77.44
41102;BME280;26845;50.190;19.178;2022-10-22T03:59:41;98474.26;;;8.29;77.16
41102;BME280;26845;50.190;19.178;2022-10-22T04:02:06;98488.45;;;8.25;77.17
41102;BME280;26845;50.190;19.178;2022-10-22T04:04:33;98492.41;;;8.21;77.45
41102;BME280;26845;50.190;19.178;2022-10-22T04:07:00;98488.01;;;8.20;77.52
41102;BME280;26845;50.190;19.178;2022-10-22T04:09:32;98479.42;;;8.19;77.48
41102;BME280;26845;50.190;19.178;2022-10-22T04:12:00;98486.11;;;8.18;77.71
41102;BME280;26845;50.190;19.178;2022-10-22T04:14:27;98487.24;;;8.17;77.48
41102;BME280;26845;50.190;19.178;2022-10-22T04:16:53;98489.44;;;8.18;77.47
41102;BME280;26845;50.190;19.178;2022-10-22T04:19:20;98483.80;;;8.23;77.51
41102;BME280;26845;50.190;19.178;2022-10-22T04:21:47;98490.05;;;8.28;77.50
41102;BME280;26845;50.190;19.178;2022-10-22T04:24:13;98493.06;;;8.29;77.39
41102;BME280;26845;50.190;19.178;2022-10-22T04:26:40;98502.29;;;8.25;77.39
41102;BME280;26845;50.190;19.178;2022-10-22T04:29:09;98504.00;;;8.23;77.45
41102;BME280;26845;50.190;19.178;2022-10-22T04:31:36;98510.06;;;8.25;77.57
41102;BME280;26845;50.190;19.178;2022-10-22T04:34:02;98510.64;;;8.22;77.54
41102;BME280;26845;50.190;19.178;2022-10-22T04:36:29;98509.69;;;8.16;77.43
41102;BME280;26845;50.190;19.178;2022-10-22T04:38:58;98500.81;;;8.16;77.54
41102;BME280;26845;50.190;19.178;2022-10-22T04:41:28;98490.26;;;8.18;77.69
41102;BME280;26845;50.190;19.178;2022-10-22T04:43:57;98482.33;;;8.14;77.63
41102;BME280;26845;50.190;19.178;2022-10-22T04:46:26;98481.91;;;8.07;77.56
41102;BME280;26845;50.190;19.178;2022-10-22T04:48:54;98479.14;;;8.07;77.80
41102;BME280;26845;50.190;19.178;2022-10-22T04:51:22;98473.50;;;7.98;77.71
41102;BME280;26845;50.190;19.178;2022-10-22T04:53:50;98466.44;;;7.92;77.86
41102;BME280;26845;50.190;19.178;2022-10-22T04:58:58;98445.12;;;7.93;77.95
41102;BME280;26845;50.190;19.178;2022-10-22T05:01:32;98433.85;;;7.89;77.94
41102;BME280;26845;50.190;19.178;2022-10-22T05:04:03;98433.48;;;7.93;78.04
41102;BME280;26845;50.190;19.178;2022-10-22T05:06:32;98427.23;;;7.87;77.88
41102;BME280;26845;50.190;19.178;2022-10-22T05:09:03;98428.47;;;7.81;77.83
41102;BME280;26845;50.190;19.178;2022-10-22T05:11:34;98427.94;;;7.79;77.98
41102;BME280;26845;50.190;19.178;2022-10-22T05:14:02;98436.05;;;7.76;78.04
41102;BME280;26845;50.190;19.178;2022-10-22T05:16:32;98447.25;;;7.68;78.03
41102;BME280;26845;50.190;19.178;2022-10-22T05:19:00;98458.44;;;7.63;78.20
41102;BME280;26845;50.190;19.178;2022-10-22T05:21:28;98477.57;;;7.59;78.36
41102;BME280;26845;50.190;19.178;2022-10-22T05:23:57;98470.81;;;7.52;78.32
41102;BME280;26845;50.190;19.178;2022-10-22T05:26:28;98460.00;;;7.53;78.72
41102;BME280;26845;50.190;19.178;2022-10-22T05:28:55;98458.58;;;7.55;79.01
41102;BME280;26845;50.190;19.178;2022-10-22T05:31:22;98464.44;;;7.51;80.39
41102;BME280;26845;50.190;19.178;2022-10-22T05:33:49;98477.78;;;7.49;79.54
41102;BME280;26845;50.190;19.178;2022-10-22T05:36:18;98480.22;;;7.51;79.21
41102;BME280;26845;50.190;19.178;2022-10-22T05:38:48;98471.43;;;7.49;79.11
41102;BME280;26845;50.190;19.178;2022-10-22T05:41:18;98473.62;;;7.49;79.25
41102;BME280;26845;50.190;19.178;2022-10-22T05:43:47;98473.83;;;7.53;79.01
41102;BME280;26845;50.190;19.178;2022-10-22T05:46:17;98479.47;;;7.61;79.04
41102;BME280;26845;50.190;19.178;2022-10-22T05:48:55;98486.39;;;7.61;78.87
41102;BME280;26845;50.190;19.178;2022-10-22T05:51:26;98483.02;;;7.64;79.00
41102;BME280;26845;50.190;19.178;2022-10-22T05:53:58;98478.41;;;7.74;78.96
41102;BME280;26845;50.190;19.178;2022-10-22T05:56:28;98478.27;;;7.81;78.86
41102;BME280;26845;50.190;19.178;2022-10-22T05:58:58;98482.28;;;7.89;78.75
41102;BME280;26845;50.190;19.178;2022-10-22T06:01:29;98484.72;;;7.91;78.76
41102;BME280;26845;50.190;19.178;2022-10-22T06:03:59;98486.10;;;7.91;78.71
41102;BME280;26845;50.190;19.178;2022-10-22T06:06:42;98486.23;;;7.85;78.77
41102;BME280;26845;50.190;19.178;2022-10-22T06:09:32;98475.55;;;7.79;78.72
41102;BME280;26845;50.190;19.178;2022-10-22T06:12:01;98476.31;;;7.82;78.95
41102;BME280;26845;50.190;19.178;2022-10-22T06:14:28;98492.00;;;7.86;79.10
41102;BME280;26845;50.190;19.178;2022-10-22T06:16:58;98503.27;;;7.90;79.11
41102;BME280;26845;50.190;19.178;2022-10-22T06:19:25;98510.61;;;7.83;78.86
41102;BME280;26845;50.190;19.178;2022-10-22T06:21:52;98516.43;;;7.82;79.02
41102;BME280;26845;50.190;19.178;2022-10-22T06:24:20;98525.50;;;7.85;79.16
41102;BME280;26845;50.190;19.178;2022-10-22T06:26:50;98518.73;;;7.91;79.18
41102;BME280;26845;50.190;19.178;2022-10-22T06:29:17;98519.69;;;8.00;79.40
41102;BME280;26845;50.190;19.178;2022-10-22T06:31:44;98530.09;;;8.06;79.30
41102;BME280;26845;50.190;19.178;2022-10-22T06:34:12;98536.36;;;8.11;79.34
41102;BME280;26845;50.190;19.178;2022-10-22T06:36:40;98543.81;;;8.25;79.39
41102;BME280;26845;50.190;19.178;2022-10-22T06:39:12;98535.31;;;8.35;79.42
41102;BME280;26845;50.190;19.178;2022-10-22T06:41:40;98545.03;;;8.49;79.61
41102;BME280;26845;50.190;19.178;2022-10-22T06:44:12;98537.06;;;8.59;79.69
41102;BME280;26845;50.190;19.178;2022-10-22T06:46:41;98537.41;;;8.68;79.38
41102;BME280;26845;50.190;19.178;2022-10-22T06:49:13;98547.95;;;8.80;79.70
41102;BME280;26845;50.190;19.178;2022-10-22T06:51:40;98544.13;;;8.90;79.39
41102;BME280;26845;50.190;19.178;2022-10-22T06:54:07;98540.55;;;9.00;79.50
41102;BME280;26845;50.190;19.178;2022-10-22T06:56:34;98533.88;;;9.13;79.54
41102;BME280;26845;50.190;19.178;2022-10-22T06:59:00;98536.09;;;9.24;79.43
41102;BME280;26845;50.190;19.178;2022-10-22T07:01:30;98545.50;;;9.37;79.45
41102;BME280;26845;50.190;19.178;2022-10-22T07:03:59;98549.66;;;9.49;79.26
41102;BME280;26845;50.190;19.178;2022-10-22T07:06:27;98555.69;;;9.62;79.58
41102;BME280;26845;50.190;19.178;2022-10-22T07:08:57;98538.48;;;9.74;79.57
41102;BME280;26845;50.190;19.178;2022-10-22T07:11:31;98536.56;;;9.83;79.46
41102;BME280;26845;50.190;19.178;2022-10-22T07:13:58;98542.16;;;9.91;79.30
41102;BME280;26845;50.190;19.178;2022-10-22T07:16:25;98559.67;;;10.01;79.51
41102;BME280;26845;50.190;19.178;2022-10-22T07:18:51;98566.35;;;10.11;79.30
41102;BME280;26845;50.190;19.178;2022-10-22T07:21:18;98562.80;;;10.19;79.29
41102;BME280;26845;50.190;19.178;2022-10-22T07:23:45;98552.56;;;10.28;79.53
41102;BME280;26845;50.190;19.178;2022-10-22T07:26:14;98537.83;;;10.39;79.52
41102;BME280;26845;50.190;19.178;2022-10-22T07:28:43;98536.45;;;10.48;79.10
41102;BME280;26845;50.190;19.178;2022-10-22T07:31:11;98531.16;;;10.57;79.04
41102;BME280;26845;50.190;19.178;2022-10-22T07:33:39;98535.34;;;10.66;78.77
41102;BME280;26845;50.190;19.178;2022-10-22T07:36:08;98550.48;;;10.71;78.69
41102;BME280;26845;50.190;19.178;2022-10-22T07:38:39;98551.22;;;10.74;78.61
41102;BME280;26845;50.190;19.178;2022-10-22T07:41:06;98528.91;;;10.77;78.51
41102;BME280;26845;50.190;19.178;2022-10-22T07:43:33;98524.52;;;10.85;78.73
41102;BME280;26845;50.190;19.178;2022-10-22T07:45:59;98519.43;;;10.95;78.86
41102;BME280;26845;50.190;19.178;2022-10-22T07:48:28;98513.13;;;11.01;78.26
41102;BME280;26845;50.190;19.178;2022-10-22T07:50:54;98510.94;;;11.00;78.16
41102;BME280;26845;50.190;19.178;2022-10-22T07:53:23;98527.54;;;11.12;78.34
41102;BME280;26845;50.190;19.178;2022-10-22T07:55:50;98543.91;;;11.13;78.10
41102;BME280;26845;50.190;19.178;2022-10-22T07:58:18;98550.79;;;11.16;78.21
41102;BME280;26845;50.190;19.178;2022-10-22T08:00:47;98543.18;;;11.19;78.00
41102;BME280;26845;50.190;19.178;2022-10-22T08:03:16;98541.21;;;11.19;77.28
41102;BME280;26845;50.190;19.178;2022-10-22T08:05:44;98540.40;;;11.19;77.38
41102;BME280;26845;50.190;19.178;2022-10-22T08:08:13;98537.12;;;11.17;74.81
41102;BME280;26845;50.190;19.178;2022-10-22T08:10:41;98531.87;;;11.15;77.04
41102;BME280;26845;50.190;19.178;2022-10-22T08:13:08;98530.00;;;11.22;77.36
41102;BME280;26845;50.190;19.178;2022-10-22T08:15:35;98533.75;;;11.26;76.23
41102;BME280;26845;50.190;19.178;2022-10-22T08:18:02;98533.91;;;11.30;76.25
41102;BME280;26845;50.190;19.178;2022-10-22T08:20:29;98530.16;;;11.34;74.98
41102;BME280;26845;50.190;19.178;2022-10-22T08:22:55;98517.87;;;11.35;76.58
41102;BME280;26845;50.190;19.178;2022-10-22T08:25:23;98526.71;;;11.37;74.27
41102;BME280;26845;50.190;19.178;2022-10-22T08:27:50;98532.77;;;11.39;75.84
41102;BME280;26845;50.190;19.178;2022-10-22T08:30:17;98544.14;;;11.40;75.76
41102;BME280;26845;50.190;19.178;2022-10-22T08:32:48;98552.98;;;11.42;74.53
41102;BME280;26845;50.190;19.178;2022-10-22T08:35:13;98559.13;;;11.42;75.40
41102;BME280;26845;50.190;19.178;2022-10-22T08:37:40;98557.73;;;11.42;74.63
41102;BME280;26845;50.190;19.178;2022-10-22T08:40:08;98557.39;;;11.43;75.32
41102;BME280;26845;50.190;19.178;2022-10-22T08:45:55;98549.95;;;11.50;75.61
41102;BME280;26845;50.190;19.178;2022-10-22T08:48:45;98546.17;;;11.55;74.90
41102;BME280;26845;50.190;19.178;2022-10-22T08:51:17;98548.64;;;11.56;75.42
41102;BME280;26845;50.190;19.178;2022-10-22T08:57:18;98556.72;;;11.73;75.02
41102;BME280;26845;50.190;19.178;2022-10-22T09:08:30;98539.33;;;11.84;74.50
41102;BME280;26845;50.190;19.178;2022-10-22T09:13:43;98555.45;;;11.85;73.80
41102;BME280;26845;50.190;19.178;2022-10-22T09:16:31;98556.44;;;11.80;74.65
41102;BME280;26845;50.190;19.178;2022-10-22T09:19:26;98559.14;;;11.83;75.07
41102;BME280;26845;50.190;19.178;2022-10-22T09:25:23;98567.84;;;11.81;74.41
41102;BME280;26845;50.190;19.178;2022-10-22T09:27:54;98567.44;;;11.85;74.86
41102;BME280;26845;50.190;19.178;2022-10-22T09:30:26;98568.25;;;11.86;74.03
41102;BME280;26845;50.190;19.178;2022-10-22T09:38:23;98579.30;;;11.80;74.37
41102;BME280;26845;50.190;19.178;2022-10-22T09:40:55;98576.28;;;11.79;73.46
41102;BME280;26845;50.190;19.178;2022-10-22T09:43:23;98580.19;;;11.78;74.37
41102;BME280;26845;50.190;19.178;2022-10-22T09:45:58;98583.55;;;11.77;74.28
41102;BME280;26845;50.190;19.178;2022-10-22T09:48:29;98582.73;;;11.77;73.71
41102;BME280;26845;50.190;19.178;2022-10-22T09:51:21;98577.60;;;11.73;74.38
41102;BME280;26845;50.190;19.178;2022-10-22T09:53:58;98566.59;;;11.85;74.89
41102;BME280;26845;50.190;19.178;2022-10-22T09:56:36;98569.24;;;11.90;74.65
41102;BME280;26845;50.190;19.178;2022-10-22T09:59:18;98578.27;;;11.87;74.09
41102;BME280;26845;50.190;19.178;2022-10-22T10:01:54;98571.03;;;11.86;74.33
41102;BME280;26845;50.190;19.178;2022-10-22T10:04:24;98571.03;;;11.86;74.59
41102;BME280;26845;50.190;19.178;2022-10-22T10:06:54;98573.40;;;11.99;74.79
41102;BME280;26845;50.190;19.178;2022-10-22T10:09:22;98574.77;;;12.07;74.65
41102;BME280;26845;50.190;19.178;2022-10-22T10:15:27;98573.66;;;12.14;74.34
41102;BME280;26845;50.190;19.178;2022-10-22T10:18:03;98584.13;;;12.18;75.81
41102;BME280;26845;50.190;19.178;2022-10-22T10:23:34;98595.13;;;12.14;74.26
41102;BME280;26845;50.190;19.178;2022-10-22T10:32:49;98578.27;;;12.34;74.69
41102;BME280;26845;50.190;19.178;2022-10-22T10:38:36;98573.67;;;12.38;74.23
41102;BME280;26845;50.190;19.178;2022-10-22T13:23:18;98479.27;;;11.66;80.70
41102;BME280;26845;50.190;19.178;2022-10-22T13:28:31;98480.48;;;11.71;80.66
41102;BME280;26845;50.190;19.178;2022-10-22T13:31:01;98489.47;;;11.77;80.73
41102;BME280;26845;50.190;19.178;2022-10-22T13:33:39;98488.89;;;11.77;80.73
41102;BME280;26845;50.190;19.178;2022-10-22T13:36:11;98502.81;;;11.77;80.62
41102;BME280;26845;50.190;19.178;2022-10-22T13:38:39;98493.06;;;11.77;80.78
41102;BME280;26845;50.190;19.178;2022-10-22T13:41:26;98494.81;;;11.76;80.80
41102;BME280;26845;50.190;19.178;2022-10-22T13:43:56;98501.42;;;11.77;81.22
41102;BME280;26845;50.190;19.178;2022-10-22T13:46:25;98493.65;;;11.77;81.07
41102;BME280;26845;50.190;19.178;2022-10-22T13:48:55;98491.94;;;11.78;81.46
41102;BME280;26845;50.190;19.178;2022-10-22T13:51:24;98488.31;;;11.78;81.30
41102;BME280;26845;50.190;19.178;2022-10-22T13:53:54;98487.19;;;11.79;81.50
41102;BME280;26845;50.190;19.178;2022-10-22T13:56:20;98491.84;;;11.72;81.76
41102;BME280;26845;50.190;19.178;2022-10-22T13:58:49;98494.25;;;11.67;81.97
41102;BME280;26845;50.190;19.178;2022-10-22T14:01:25;98501.16;;;11.61;83.59
41102;BME280;26845;50.190;19.178;2022-10-22T14:03:54;98500.09;;;11.51;82.79
41102;BME280;26845;50.190;19.178;2022-10-22T14:06:25;98504.78;;;11.44;83.65
41102;BME280;26845;50.190;19.178;2022-10-22T14:08:58;98519.17;;;11.38;84.27
41102;BME280;26845;50.190;19.178;2022-10-22T14:11:34;98522.47;;;11.31;84.40
41102;BME280;26845;50.190;19.178;2022-10-22T14:14:01;98507.56;;;11.18;86.19
41102;BME280;26845;50.190;19.178;2022-10-22T14:16:31;98516.49;;;11.09;85.77
41102;BME280;26845;50.190;19.178;2022-10-22T14:19:02;98515.37;;;11.01;85.56
41102;BME280;26845;50.190;19.178;2022-10-22T14:21:36;98515.10;;;10.92;86.13
41102;BME280;26845;50.190;19.178;2022-10-22T14:24:00;98524.02;;;10.91;87.86
41102;BME280;26845;50.190;19.178;2022-10-22T14:26:29;98522.28;;;10.84;86.92
41102;BME280;26845;50.190;19.178;2022-10-22T14:28:59;98521.81;;;10.82;87.22
41102;BME280;26845;50.190;19.178;2022-10-22T14:31:26;98526.05;;;10.79;89.44
41102;BME280;26845;50.190;19.178;2022-10-22T14:33:54;98525.62;;;10.75;86.96
41102;BME280;26845;50.190;19.178;2022-10-22T14:36:20;98522.61;;;10.74;88.42
41102;BME280;26845;50.190;19.178;2022-10-22T14:38:48;98518.17;;;10.73;88.03
41102;BME280;26845;50.190;19.178;2022-10-22T14:41:20;98524.16;;;10.69;89.50
41102;BME280;26845;50.190;19.178;2022-10-22T14:43:49;98525.95;;;10.65;88.16
41102;BME280;26845;50.190;19.178;2022-10-22T14:46:18;98525.88;;;10.67;87.47
41102;BME280;26845;50.190;19.178;2022-10-22T14:48:46;98526.12;;;10.68;89.96
41102;BME280;26845;50.190;19.178;2022-10-22T14:51:15;98533.72;;;10.65;88.34
41102;BME280;26845;50.190;19.178;2022-10-22T14:53:43;98527.00;;;10.66;88.74
41102;BME280;26845;50.190;19.178;2022-10-22T14:56:12;98521.78;;;10.65;88.51
41102;BME280;26845;50.190;19.178;2022-10-22T14:58:43;98523.41;;;10.66;88.46
41102;BME280;26845;50.190;19.178;2022-10-22T15:01:12;98526.42;;;10.67;89.28
41102;BME280;26845;50.190;19.178;2022-10-22T15:03:39;98524.80;;;10.66;88.86
41102;BME280;26845;50.190;19.178;2022-10-22T15:06:06;98517.86;;;10.66;88.76
41102;BME280;26845;50.190;19.178;2022-10-22T15:08:33;98517.04;;;10.65;88.82
41102;BME280;26845;50.190;19.178;2022-10-22T15:11:03;98513.69;;;10.66;90.66
41102;BME280;26845;50.190;19.178;2022-10-22T15:13:32;98524.64;;;10.62;89.48
41102;BME280;26845;50.190;19.178;2022-10-22T15:16:07;98514.64;;;10.61;89.72
41102;BME280;26845;50.190;19.178;2022-10-22T15:18:32;98522.67;;;10.63;89.16
41102;BME280;26845;50.190;19.178;2022-10-22T15:21:05;98522.98;;;10.61;89.98
41102;BME280;26845;50.190;19.178;2022-10-22T15:23:35;98530.00;;;10.58;90.46
41102;BME280;26845;50.190;19.178;2022-10-22T15:26:06;98530.42;;;10.54;89.66
41102;BME280;26845;50.190;19.178;2022-10-22T15:28:35;98528.79;;;10.53;91.56
41102;BME280;26845;50.190;19.178;2022-10-22T15:31:03;98538.52;;;10.53;90.00
41102;BME280;26845;50.190;19.178;2022-10-22T15:33:30;98529.98;;;10.50;92.88
41102;BME280;26845;50.190;19.178;2022-10-22T15:35:57;98541.20;;;10.47;90.93
41102;BME280;26845;50.190;19.178;2022-10-22T15:38:27;98542.32;;;10.46;90.14
41102;BME280;26845;50.190;19.178;2022-10-22T15:41:06;98543.88;;;10.50;89.95
41102;BME280;26845;50.190;19.178;2022-10-22T15:43:30;98541.30;;;10.53;90.67
41102;BME280;26845;50.190;19.178;2022-10-22T15:46:10;98544.26;;;10.66;90.55
41102;BME280;26845;50.190;19.178;2022-10-22T15:48:41;98546.30;;;10.63;90.46
41102;BME280;26845;50.190;19.178;2022-10-22T15:51:10;98550.10;;;10.55;90.70
41102;BME280;26845;50.190;19.178;2022-10-22T15:53:42;98555.26;;;10.51;90.32
41102;BME280;26845;50.190;19.178;2022-10-22T15:56:12;98562.34;;;10.46;90.65
41102;BME280;26845;50.190;19.178;2022-10-22T15:58:38;98567.66;;;10.45;90.30
41102;BME280;26845;50.190;19.178;2022-10-22T16:01:07;98569.30;;;10.46;90.72
41102;BME280;26845;50.190;19.178;2022-10-22T16:03:37;98571.50;;;10.46;90.27
41102;BME280;26845;50.190;19.178;2022-10-22T16:06:05;98578.14;;;10.48;90.75
41102;BME280;26845;50.190;19.178;2022-10-22T16:08:33;98577.32;;;10.47;90.25
41102;BME280;26845;50.190;19.178;2022-10-22T16:10:59;98573.63;;;10.49;90.36
41102;BME280;26845;50.190;19.178;2022-10-22T16:13:26;98567.69;;;10.53;90.81
41102;BME280;26845;50.190;19.178;2022-10-22T16:15:53;98582.13;;;10.53;91.14
41102;BME280;26845;50.190;19.178;2022-10-22T16:18:20;98582.23;;;10.50;90.47
41102;BME280;26845;50.190;19.178;2022-10-22T16:20:46;98586.70;;;10.49;91.10
41102;BME280;26845;50.190;19.178;2022-10-22T16:23:13;98591.76;;;10.47;91.75
41102;BME280;26845;50.190;19.178;2022-10-22T16:25:42;98598.87;;;10.42;91.29
41102;BME280;26845;50.190;19.178;2022-10-22T16:28:10;98599.69;;;10.42;91.00
41102;BME280;26845;50.190;19.178;2022-10-22T16:30:37;98604.02;;;10.46;90.69
41102;BME280;26845;50.190;19.178;2022-10-22T16:33:06;98609.69;;;10.52;90.62
41102;BME280;26845;50.190;19.178;2022-10-22T16:35:33;98610.77;;;10.53;90.77
41102;BME280;26845;50.190;19.178;2022-10-22T16:38:02;98610.12;;;10.56;90.71
41102;BME280;26845;50.190;19.178;2022-10-22T16:40:28;98608.66;;;10.59;90.52
41102;BME280;26845;50.190;19.178;2022-10-22T16:42:55;98613.23;;;10.64;90.46
41102;BME280;26845;50.190;19.178;2022-10-22T16:45:22;98616.76;;;10.67;90.49
41102;BME280;26845;50.190;19.178;2022-10-22T16:47:48;98606.14;;;10.69;90.46
41102;BME280;26845;50.190;19.178;2022-10-22T16:50:15;98608.11;;;10.68;90.68
41102;BME280;26845;50.190;19.178;2022-10-22T16:52:42;98616.76;;;10.67;92.13
41102;BME280;26845;50.190;19.178;2022-10-22T16:55:08;98625.00;;;10.61;91.22
41102;BME280;26845;50.190;19.178;2022-10-22T16:57:35;98622.12;;;10.54;91.11
41102;BME280;26845;50.190;19.178;2022-10-22T17:00:04;98620.86;;;10.49;92.19
41102;BME280;26845;50.190;19.178;2022-10-22T17:02:31;98628.45;;;10.46;92.19
41102;BME280;26845;50.190;19.178;2022-10-22T17:04:58;98627.20;;;10.41;91.99
41102;BME280;26845;50.190;19.178;2022-10-22T17:07:26;98633.60;;;10.42;91.46
41102;BME280;26845;50.190;19.178;2022-10-22T17:09:52;98643.56;;;10.43;91.45